sensor_id;sensor_type;location;lat;lon;timestamp;P1;durP1;ratioP1;P2;durP2;ratioP2
20142;SDS011;10509;46.476;7.134;2023-02-01T00:00:37;4.00;;;3.70;;
20142;SDS011;10509;46.476;7.134;2023-02-01T00:03:03;3.83;;;3.53;;
20142;SDS011;10509;46.476;7.134;2023-02-01T00:05:30;3.90;;;3.60;;
20142;SDS011;10509;46.476;7.134;2023-02-01T00:07:56;3.70;;;3.40;;
20142;SDS011;10509;46.476;7.134;2023-02-01T00:10:22;3.70;;;3.40;;
20142;SDS011;10509;46.476;7.134;2023-02-01T00:12:48;4.00;;;3.70;;
20142;SDS011;10509;46.476;7.134;2023-02-01T00:15:14;3.57;;;3.27;;
20142;SDS011;10509;46.476;7.134;2023-02-01T00:17:40;4.00;;;3.70;;
20142;SDS011;10509;46.476;7.134;2023-02-01T00:20:07;4.10;;;3.70;;
20142;SDS011;10509;46.476;7.134;2023-02-01T00:22:33;3.80;;;3.50;;
20142;SDS011;10509;46.476;7.134;2023-02-01T00:24:59;4.10;;;3.80;;
20142;SDS011;10509;46.476;7.134;2023-02-01T00:27:25;4.00;;;3.70;;
20142;SDS011;10509;46.476;7.134;2023-02-01T00:29:51;3.40;;;3.10;;
20142;SDS011;10509;46.476;7.134;2023-02-01T00:32:17;3.00;;;2.80;;
20142;SDS011;10509;46.476;7.134;2023-02-01T00:34:43;2.77;;;2.57;;
20142;SDS011;10509;46.476;7.134;2023-02-01T00:37:09;2.67;;;2.47;;
20142;SDS011;10509;46.476;7.134;2023-02-01T00:39:35;2.80;;;2.60;;
20142;SDS011;10509;46.476;7.134;2023-02-01T00:42:01;2.00;;;1.87;;
20142;SDS011;10509;46.476;7.134;2023-02-01T00:44:27;2.60;;;2.40;;
20142;SDS011;10509;46.476;7.134;2023-02-01T00:46:57;2.90;;;2.70;;
20142;SDS011;10509;46.476;7.134;2023-02-01T00:49:23;3.17;;;2.70;;
20142;SDS011;10509;46.476;7.134;2023-02-01T00:51:50;2.43;;;2.10;;
20142;SDS011;10509;46.476;7.134;2023-02-01T00:54:16;2.47;;;2.27;;
20142;SDS011;10509;46.476;7.134;2023-02-01T00:56:42;3.50;;;3.30;;
20142;SDS011;10509;46.476;7.134;2023-02-01T00:59:10;3.27;;;3.00;;
20142;SDS011;10509;46.476;7.134;2023-02-01T01:01:37;2.87;;;2.67;;
20142;SDS011;10509;46.476;7.134;2023-02-01T01:04:03;2.77;;;2.27;;
20142;SDS011;10509;46.476;7.134;2023-02-01T01:06:30;1.80;;;1.70;;
20142;SDS011;10509;46.476;7.134;2023-02-01T01:08:57;1.83;;;1.73;;
20142;SDS011;10509;46.476;7.134;2023-02-01T01:11:29;3.07;;;2.30;;
20142;SDS011;10509;46.476;7.134;2023-02-01T01:13:56;2.67;;;2.47;;
20142;SDS011;10509;46.476;7.134;2023-02-01T01:16:22;2.53;;;2.33;;
20142;SDS011;10509;46.476;7.134;2023-02-01T01:18:49;2.20;;;2.00;;
20142;SDS011;10509;46.476;7.134;2023-02-01T01:21:16;2.10;;;1.83;;
20142;SDS011;10509;46.476;7.134;2023-02-01T01:23:42;2.97;;;2.70;;
20142;SDS011;10509;46.476;7.134;2023-02-01T01:26:15;3.30;;;3.10;;
20142;SDS011;10509;46.476;7.134;2023-02-01T01:28:41;2.80;;;2.50;;
20142;SDS011;10509;46.476;7.134;2023-02-01T01:31:08;2.80;;;2.60;;
20142;SDS011;10509;46.476;7.134;2023-02-01T01:33:35;2.50;;;2.30;;
20142;SDS011;10509;46.476;7.134;2023-02-01T01:36:01;2.43;;;2.33;;
20142;SDS011;10509;46.476;7.134;2023-02-01T01:38:27;2.60;;;2.33;;
20142;SDS011;10509;46.476;7.134;2023-02-01T01:40:53;3.00;;;2.80;;
20142;SDS011;10509;46.476;7.134;2023-02-01T01:43:19;2.70;;;2.50;;
20142;SDS011;10509;46.476;7.134;2023-02-01T01:45:49;2.20;;;2.00;;
20142;SDS011;10509;46.476;7.134;2023-02-01T01:48:16;2.47;;;2.27;;
20142;SDS011;10509;46.476;7.134;2023-02-01T01:53:10;2.77;;;2.57;;
20142;SDS011;10509;46.476;7.134;2023-02-01T01:55:37;2.83;;;2.63;;
20142;SDS011;10509;46.476;7.134;2023-02-01T01:58:06;2.30;;;2.10;;
20142;SDS011;10509;46.476;7.134;2023-02-01T02:00:33;2.53;;;2.33;;
20142;SDS011;10509;46.476;7.134;2023-02-01T02:03:14;2.90;;;2.43;;
20142;SDS011;10509;46.476;7.134;2023-02-01T02:05:41;4.30;;;2.10;;
20142;SDS011;10509;46.476;7.134;2023-02-01T02:08:07;2.50;;;2.30;;
20142;SDS011;10509;46.476;7.134;2023-02-01T02:10:33;2.07;;;1.90;;
20142;SDS011;10509;46.476;7.134;2023-02-01T02:13:17;2.23;;;2.00;;
20142;SDS011;10509;46.476;7.134;2023-02-01T02:15:48;2.53;;;2.33;;
20142;SDS011;10509;46.476;7.134;2023-02-01T02:19:06;2.57;;;2.37;;
20142;SDS011;10509;46.476;7.134;2023-02-01T02:44:35;2.20;;;2.00;;
20142;SDS011;10509;46.476;7.134;2023-02-01T02:47:25;2.77;;;2.57;;
20142;SDS011;10509;46.476;7.134;2023-02-01T02:49:58;2.30;;;2.10;;
20142;SDS011;10509;46.476;7.134;2023-02-01T02:52:49;2.30;;;2.10;;
20142;SDS011;10509;46.476;7.134;2023-02-01T02:55:36;2.40;;;2.20;;
20142;SDS011;10509;46.476;7.134;2023-02-01T02:58:05;2.47;;;2.27;;
20142;SDS011;10509;46.476;7.134;2023-02-01T03:00:51;2.20;;;2.00;;
20142;SDS011;10509;46.476;7.134;2023-02-01T03:03:37;2.17;;;2.07;;
20142;SDS011;10509;46.476;7.134;2023-02-01T03:06:22;1.83;;;1.73;;
20142;SDS011;10509;46.476;7.134;2023-02-01T03:08:48;1.70;;;1.60;;
20142;SDS011;10509;46.476;7.134;2023-02-01T03:11:19;1.87;;;1.77;;
20142;SDS011;10509;46.476;7.134;2023-02-01T03:13:56;1.83;;;1.73;;
20142;SDS011;10509;46.476;7.134;2023-02-01T03:16:24;2.20;;;1.67;;
20142;SDS011;10509;46.476;7.134;2023-02-01T03:22:08;1.43;;;1.30;;
20142;SDS011;10509;46.476;7.134;2023-02-01T03:25:00;1.93;;;1.70;;
20142;SDS011;10509;46.476;7.134;2023-02-01T03:29:41;1.87;;;1.53;;
20142;SDS011;10509;46.476;7.134;2023-02-01T03:32:11;2.73;;;1.80;;
20142;SDS011;10509;46.476;7.134;2023-02-01T03:34:37;1.83;;;1.30;;
20142;SDS011;10509;46.476;7.134;2023-02-01T03:37:04;1.90;;;1.60;;
20142;SDS011;10509;46.476;7.134;2023-02-01T03:42:03;1.73;;;1.63;;
20142;SDS011;10509;46.476;7.134;2023-02-01T03:44:31;1.40;;;1.30;;
20142;SDS011;10509;46.476;7.134;2023-02-01T03:47:20;1.20;;;1.10;;
20142;SDS011;10509;46.476;7.134;2023-02-01T03:49:49;1.77;;;1.40;;
20142;SDS011;10509;46.476;7.134;2023-02-01T03:52:18;2.20;;;2.00;;
20142;SDS011;10509;46.476;7.134;2023-02-01T03:54:46;2.33;;;2.13;;
20142;SDS011;10509;46.476;7.134;2023-02-01T03:57:13;2.27;;;2.10;;
20142;SDS011;10509;46.476;7.134;2023-02-01T03:59:41;2.10;;;1.80;;
20142;SDS011;10509;46.476;7.134;2023-02-01T04:02:08;1.53;;;1.43;;
20142;SDS011;10509;46.476;7.134;2023-02-01T04:04:34;2.03;;;1.80;;
20142;SDS011;10509;46.476;7.134;2023-02-01T04:07:00;1.97;;;1.77;;
20142;SDS011;10509;46.476;7.134;2023-02-01T04:09:26;2.43;;;1.70;;
20142;SDS011;10509;46.476;7.134;2023-02-01T04:11:52;1.77;;;1.53;;
20142;SDS011;10509;46.476;7.134;2023-02-01T04:14:18;1.57;;;1.47;;
20142;SDS011;10509;46.476;7.134;2023-02-01T04:16:44;2.03;;;1.73;;
20142;SDS011;10509;46.476;7.134;2023-02-01T04:19:10;2.10;;;1.90;;
20142;SDS011;10509;46.476;7.134;2023-02-01T04:21:36;2.00;;;1.70;;
20142;SDS011;10509;46.476;7.134;2023-02-01T04:24:03;1.60;;;1.37;;
20142;SDS011;10509;46.476;7.134;2023-02-01T04:26:29;2.13;;;1.70;;
20142;SDS011;10509;46.476;7.134;2023-02-01T04:28:55;1.43;;;1.33;;
20142;SDS011;10509;46.476;7.134;2023-02-01T04:31:21;1.47;;;1.23;;
20142;SDS011;10509;46.476;7.134;2023-02-01T04:33:53;1.57;;;1.40;;
20142;SDS011;10509;46.476;7.134;2023-02-01T04:36:20;1.50;;;1.20;;
20142;SDS011;10509;46.476;7.134;2023-02-01T04:38:47;1.83;;;1.57;;
20142;SDS011;10509;46.476;7.134;2023-02-01T04:41:13;2.50;;;1.20;;
20142;SDS011;10509;46.476;7.134;2023-02-01T04:43:39;1.60;;;1.40;;
20142;SDS011;10509;46.476;7.134;2023-02-01T04:46:05;1.17;;;1.00;;
20142;SDS011;10509;46.476;7.134;2023-02-01T04:48:31;1.40;;;1.10;;
20142;SDS011;10509;46.476;7.134;2023-02-01T04:50:57;1.40;;;1.00;;
20142;SDS011;10509;46.476;7.134;2023-02-01T04:53:23;1.43;;;1.20;;
20142;SDS011;10509;46.476;7.134;2023-02-01T04:55:49;2.63;;;2.43;;
20142;SDS011;10509;46.476;7.134;2023-02-01T04:58:15;1.77;;;1.43;;
20142;SDS011;10509;46.476;7.134;2023-02-01T05:00:41;1.53;;;1.30;;
20142;SDS011;10509;46.476;7.134;2023-02-01T05:03:07;2.47;;;1.33;;
20142;SDS011;10509;46.476;7.134;2023-02-01T05:05:33;3.30;;;1.40;;
20142;SDS011;10509;46.476;7.134;2023-02-01T05:07:59;1.40;;;1.20;;
20142;SDS011;10509;46.476;7.134;2023-02-01T05:10:25;2.00;;;1.80;;
20142;SDS011;10509;46.476;7.134;2023-02-01T05:12:51;2.10;;;1.87;;
20142;SDS011;10509;46.476;7.134;2023-02-01T05:15:36;4.73;;;3.30;;
20142;SDS011;10509;46.476;7.134;2023-02-01T05:18:02;3.53;;;3.17;;
20142;SDS011;10509;46.476;7.134;2023-02-01T05:20:28;2.97;;;2.30;;
20142;SDS011;10509;46.476;7.134;2023-02-01T05:22:54;3.10;;;1.97;;
20142;SDS011;10509;46.476;7.134;2023-02-01T05:25:20;2.27;;;1.93;;
20142;SDS011;10509;46.476;7.134;2023-02-01T05:27:46;1.87;;;1.60;;
20142;SDS011;10509;46.476;7.134;2023-02-01T05:30:12;3.50;;;2.93;;
20142;SDS011;10509;46.476;7.134;2023-02-01T05:32:38;4.33;;;3.77;;
20142;SDS011;10509;46.476;7.134;2023-02-01T05:35:05;4.93;;;4.53;;
20142;SDS011;10509;46.476;7.134;2023-02-01T05:37:31;5.77;;;3.33;;
20142;SDS011;10509;46.476;7.134;2023-02-01T05:39:57;3.90;;;3.40;;
20142;SDS011;10509;46.476;7.134;2023-02-01T05:42:23;2.83;;;2.20;;
20142;SDS011;10509;46.476;7.134;2023-02-01T05:44:49;2.50;;;2.03;;
20142;SDS011;10509;46.476;7.134;2023-02-01T05:47:15;1.77;;;1.50;;
20142;SDS011;10509;46.476;7.134;2023-02-01T05:49:41;1.60;;;1.50;;
20142;SDS011;10509;46.476;7.134;2023-02-01T05:52:07;1.63;;;1.40;;
20142;SDS011;10509;46.476;7.134;2023-02-01T05:54:33;3.10;;;1.50;;
20142;SDS011;10509;46.476;7.134;2023-02-01T05:56:59;1.90;;;1.50;;
20142;SDS011;10509;46.476;7.134;2023-02-01T05:59:25;1.40;;;1.30;;
20142;SDS011;10509;46.476;7.134;2023-02-01T06:01:51;1.70;;;1.00;;
20142;SDS011;10509;46.476;7.134;2023-02-01T06:04:17;2.17;;;1.77;;
20142;SDS011;10509;46.476;7.134;2023-02-01T06:06:43;3.73;;;2.00;;
20142;SDS011;10509;46.476;7.134;2023-02-01T06:09:09;3.13;;;2.07;;
20142;SDS011;10509;46.476;7.134;2023-02-01T06:11:35;1.77;;;1.67;;
20142;SDS011;10509;46.476;7.134;2023-02-01T06:14:01;3.67;;;2.00;;
20142;SDS011;10509;46.476;7.134;2023-02-01T06:16:27;2.67;;;2.43;;
20142;SDS011;10509;46.476;7.134;2023-02-01T06:18:53;1.80;;;1.30;;
20142;SDS011;10509;46.476;7.134;2023-02-01T06:21:19;1.30;;;1.20;;
20142;SDS011;10509;46.476;7.134;2023-02-01T06:23:54;2.07;;;1.10;;
20142;SDS011;10509;46.476;7.134;2023-02-01T06:26:22;3.40;;;3.10;;
20142;SDS011;10509;46.476;7.134;2023-02-01T06:28:49;3.37;;;3.07;;
20142;SDS011;10509;46.476;7.134;2023-02-01T06:31:15;2.30;;;1.40;;
20142;SDS011;10509;46.476;7.134;2023-02-01T06:33:41;6.23;;;5.63;;
20142;SDS011;10509;46.476;7.134;2023-02-01T06:36:09;2.70;;;2.50;;
20142;SDS011;10509;46.476;7.134;2023-02-01T06:38:36;2.10;;;1.90;;
20142;SDS011;10509;46.476;7.134;2023-02-01T06:41:02;4.07;;;1.80;;
20142;SDS011;10509;46.476;7.134;2023-02-01T06:43:28;2.30;;;2.10;;
20142;SDS011;10509;46.476;7.134;2023-02-01T06:45:58;1.77;;;1.67;;
20142;SDS011;10509;46.476;7.134;2023-02-01T06:48:25;1.47;;;1.37;;
20142;SDS011;10509;46.476;7.134;2023-02-01T06:50:51;1.20;;;1.10;;
20142;SDS011;10509;46.476;7.134;2023-02-01T06:53:17;1.60;;;1.23;;
20142;SDS011;10509;46.476;7.134;2023-02-01T06:55:51;2.17;;;1.67;;
20142;SDS011;10509;46.476;7.134;2023-02-01T06:58:17;1.63;;;1.53;;
20142;SDS011;10509;46.476;7.134;2023-02-01T07:00:43;2.43;;;1.80;;
20142;SDS011;10509;46.476;7.134;2023-02-01T07:03:09;2.50;;;2.30;;
20142;SDS011;10509;46.476;7.134;2023-02-01T07:05:35;3.00;;;2.70;;
20142;SDS011;10509;46.476;7.134;2023-02-01T07:08:01;6.93;;;3.37;;
20142;SDS011;10509;46.476;7.134;2023-02-01T07:10:27;4.03;;;3.57;;
20142;SDS011;10509;46.476;7.134;2023-02-01T07:12:55;4.37;;;3.37;;
20142;SDS011;10509;46.476;7.134;2023-02-01T07:15:22;6.17;;;3.50;;
20142;SDS011;10509;46.476;7.134;2023-02-01T07:17:48;3.87;;;3.57;;
20142;SDS011;10509;46.476;7.134;2023-02-01T07:20:14;4.27;;;2.90;;
20142;SDS011;10509;46.476;7.134;2023-02-01T07:22:41;4.30;;;3.90;;
20142;SDS011;10509;46.476;7.134;2023-02-01T07:25:07;4.17;;;3.77;;
20142;SDS011;10509;46.476;7.134;2023-02-01T07:27:34;5.23;;;3.87;;
20142;SDS011;10509;46.476;7.134;2023-02-01T07:30:00;3.87;;;3.40;;
20142;SDS011;10509;46.476;7.134;2023-02-01T07:32:27;3.47;;;3.00;;
20142;SDS011;10509;46.476;7.134;2023-02-01T07:34:53;3.03;;;2.73;;
20142;SDS011;10509;46.476;7.134;2023-02-01T07:37:19;4.53;;;4.23;;
20142;SDS011;10509;46.476;7.134;2023-02-01T07:39:45;4.77;;;4.30;;
20142;SDS011;10509;46.476;7.134;2023-02-01T07:42:11;4.30;;;3.90;;
20142;SDS011;10509;46.476;7.134;2023-02-01T07:44:37;3.37;;;3.07;;
20142;SDS011;10509;46.476;7.134;2023-02-01T07:47:03;3.10;;;2.90;;
20142;SDS011;10509;46.476;7.134;2023-02-01T07:49:29;3.30;;;2.70;;
20142;SDS011;10509;46.476;7.134;2023-02-01T07:51:55;6.50;;;5.90;;
20142;SDS011;10509;46.476;7.134;2023-02-01T07:54:21;3.10;;;2.80;;
20142;SDS011;10509;46.476;7.134;2023-02-01T07:56:47;4.30;;;3.17;;
20142;SDS011;10509;46.476;7.134;2023-02-01T07:59:13;4.73;;;3.73;;
20142;SDS011;10509;46.476;7.134;2023-02-01T08:01:40;5.93;;;5.27;;
20142;SDS011;10509;46.476;7.134;2023-02-01T08:04:07;3.47;;;3.00;;
20142;SDS011;10509;46.476;7.134;2023-02-01T08:06:34;7.63;;;4.10;;
20142;SDS011;10509;46.476;7.134;2023-02-01T08:09:01;5.90;;;5.30;;
20142;SDS011;10509;46.476;7.134;2023-02-01T08:11:27;7.37;;;5.87;;
20142;SDS011;10509;46.476;7.134;2023-02-01T08:13:53;7.00;;;5.47;;
20142;SDS011;10509;46.476;7.134;2023-02-01T08:16:20;4.47;;;4.07;;
20142;SDS011;10509;46.476;7.134;2023-02-01T08:18:46;3.80;;;3.10;;
20142;SDS011;10509;46.476;7.134;2023-02-01T08:21:16;4.70;;;3.10;;
20142;SDS011;10509;46.476;7.134;2023-02-01T08:23:42;3.53;;;2.63;;
20142;SDS011;10509;46.476;7.134;2023-02-01T08:26:10;4.53;;;3.53;;
20142;SDS011;10509;46.476;7.134;2023-02-01T08:28:37;6.10;;;4.40;;
20142;SDS011;10509;46.476;7.134;2023-02-01T08:31:04;6.93;;;5.00;;
20142;SDS011;10509;46.476;7.134;2023-02-01T08:33:30;7.37;;;4.80;;
20142;SDS011;10509;46.476;7.134;2023-02-01T08:35:56;13.10;;;10.80;;
20142;SDS011;10509;46.476;7.134;2023-02-01T08:38:22;6.80;;;6.10;;
20142;SDS011;10509;46.476;7.134;2023-02-01T08:40:48;6.27;;;5.77;;
20142;SDS011;10509;46.476;7.134;2023-02-01T08:43:14;4.00;;;3.60;;
20142;SDS011;10509;46.476;7.134;2023-02-01T08:45:40;3.50;;;3.20;;
20142;SDS011;10509;46.476;7.134;2023-02-01T08:48:06;4.83;;;3.87;;
20142;SDS011;10509;46.476;7.134;2023-02-01T08:50:32;4.53;;;3.70;;
20142;SDS011;10509;46.476;7.134;2023-02-01T08:52:58;4.20;;;3.80;;
20142;SDS011;10509;46.476;7.134;2023-02-01T08:55:24;5.83;;;5.27;;
20142;SDS011;10509;46.476;7.134;2023-02-01T08:57:51;4.37;;;3.97;;
20142;SDS011;10509;46.476;7.134;2023-02-01T09:00:17;3.90;;;3.60;;
20142;SDS011;10509;46.476;7.134;2023-02-01T09:02:43;13.87;;;11.13;;
20142;SDS011;10509;46.476;7.134;2023-02-01T09:05:10;7.03;;;5.90;;
20142;SDS011;10509;46.476;7.134;2023-02-01T09:07:36;8.00;;;7.00;;
20142;SDS011;10509;46.476;7.134;2023-02-01T09:10:03;4.17;;;3.77;;
20142;SDS011;10509;46.476;7.134;2023-02-01T09:12:29;4.10;;;3.70;;
20142;SDS011;10509;46.476;7.134;2023-02-01T09:14:56;8.47;;;7.70;;
20142;SDS011;10509;46.476;7.134;2023-02-01T09:17:25;9.70;;;8.90;;
20142;SDS011;10509;46.476;7.134;2023-02-01T09:19:51;8.73;;;6.50;;
20142;SDS011;10509;46.476;7.134;2023-02-01T09:22:17;7.10;;;6.50;;
20142;SDS011;10509;46.476;7.134;2023-02-01T09:24:43;6.43;;;5.20;;
20142;SDS011;10509;46.476;7.134;2023-02-01T09:27:09;8.57;;;7.97;;
20142;SDS011;10509;46.476;7.134;2023-02-01T09:29:35;4.93;;;4.00;;
20142;SDS011;10509;46.476;7.134;2023-02-01T09:32:01;8.27;;;7.57;;
20142;SDS011;10509;46.476;7.134;2023-02-01T09:34:27;7.17;;;6.57;;
20142;SDS011;10509;46.476;7.134;2023-02-01T09:36:53;3.53;;;3.23;;
20142;SDS011;10509;46.476;7.134;2023-02-01T09:39:19;3.50;;;3.20;;
20142;SDS011;10509;46.476;7.134;2023-02-01T09:46:37;3.03;;;2.73;;
20142;SDS011;10509;46.476;7.134;2023-02-01T09:49:04;3.80;;;3.40;;
20142;SDS011;10509;46.476;7.134;2023-02-01T09:51:35;2.40;;;2.20;;
20142;SDS011;10509;46.476;7.134;2023-02-01T09:54:04;2.90;;;2.70;;
20142;SDS011;10509;46.476;7.134;2023-02-01T09:56:42;12.67;;;11.97;;
20142;SDS011;10509;46.476;7.134;2023-02-01T09:59:19;2.80;;;2.60;;
20142;SDS011;10509;46.476;7.134;2023-02-01T10:01:48;3.90;;;3.53;;
20142;SDS011;10509;46.476;7.134;2023-02-01T10:04:14;4.47;;;3.47;;
20142;SDS011;10509;46.476;7.134;2023-02-01T10:09:42;3.70;;;3.33;;
20142;SDS011;10509;46.476;7.134;2023-02-01T10:20:16;4.20;;;3.77;;
20142;SDS011;10509;46.476;7.134;2023-02-01T10:22:47;2.93;;;2.73;;
20142;SDS011;10509;46.476;7.134;2023-02-01T10:25:22;3.60;;;2.90;;
20142;SDS011;10509;46.476;7.134;2023-02-01T10:27:50;2.83;;;2.53;;
20142;SDS011;10509;46.476;7.134;2023-02-01T10:30:20;6.00;;;5.50;;
20142;SDS011;10509;46.476;7.134;2023-02-01T10:32:47;3.80;;;3.50;;
20142;SDS011;10509;46.476;7.134;2023-02-01T10:37:40;6.27;;;5.77;;
20142;SDS011;10509;46.476;7.134;2023-02-01T10:42:36;11.77;;;10.53;;
20142;SDS011;10509;46.476;7.134;2023-02-01T10:45:02;6.10;;;5.50;;
20142;SDS011;10509;46.476;7.134;2023-02-01T10:47:29;11.70;;;10.70;;
20142;SDS011;10509;46.476;7.134;2023-02-01T10:52:33;6.30;;;5.80;;
20142;SDS011;10509;46.476;7.134;2023-02-01T10:57:52;3.37;;;3.07;;
20142;SDS011;10509;46.476;7.134;2023-02-01T11:00:21;2.20;;;1.37;;
20142;SDS011;10509;46.476;7.134;2023-02-01T11:02:47;2.93;;;1.50;;
20142;SDS011;10509;46.476;7.134;2023-02-01T11:05:15;4.37;;;1.60;;
20142;SDS011;10509;46.476;7.134;2023-02-01T11:07:48;2.73;;;1.97;;
20142;SDS011;10509;46.476;7.134;2023-02-01T11:12:59;2.00;;;1.80;;
20142;SDS011;10509;46.476;7.134;2023-02-01T11:15:27;2.00;;;1.80;;
20142;SDS011;10509;46.476;7.134;2023-02-01T11:17:53;2.43;;;2.20;;
20142;SDS011;10509;46.476;7.134;2023-02-01T11:22:59;2.67;;;1.47;;
20142;SDS011;10509;46.476;7.134;2023-02-01T11:25:25;1.40;;;1.10;;
20142;SDS011;10509;46.476;7.134;2023-02-01T11:27:53;3.40;;;1.87;;
20142;SDS011;10509;46.476;7.134;2023-02-01T11:30:38;2.27;;;1.80;;
20142;SDS011;10509;46.476;7.134;2023-02-01T11:33:05;2.77;;;2.20;;
20142;SDS011;10509;46.476;7.134;2023-02-01T11:35:32;2.67;;;2.43;;
20142;SDS011;10509;46.476;7.134;2023-02-01T11:37:59;5.17;;;3.90;;
20142;SDS011;10509;46.476;7.134;2023-02-01T11:40:30;3.03;;;2.00;;
20142;SDS011;10509;46.476;7.134;2023-02-01T11:43:01;3.03;;;1.77;;
20142;SDS011;10509;46.476;7.134;2023-02-01T11:45:33;2.50;;;1.50;;
20142;SDS011;10509;46.476;7.134;2023-02-01T11:48:02;2.33;;;1.50;;
20142;SDS011;10509;46.476;7.134;2023-02-01T11:50:35;1.67;;;1.00;;
20142;SDS011;10509;46.476;7.134;2023-02-01T11:58:20;4.73;;;2.10;;
20142;SDS011;10509;46.476;7.134;2023-02-01T12:06:08;3.73;;;1.47;;
20142;SDS011;10509;46.476;7.134;2023-02-01T12:16:02;3.07;;;1.60;;
20142;SDS011;10509;46.476;7.134;2023-02-01T12:31:15;2.50;;;1.30;;
20142;SDS011;10509;46.476;7.134;2023-02-01T12:33:57;2.50;;;1.47;;
20142;SDS011;10509;46.476;7.134;2023-02-01T12:44:08;3.77;;;1.50;;
20142;SDS011;10509;46.476;7.134;2023-02-01T12:46:41;1.63;;;1.10;;
20142;SDS011;10509;46.476;7.134;2023-02-01T12:49:16;2.37;;;1.30;;
20142;SDS011;10509;46.476;7.134;2023-02-01T12:51:44;1.70;;;1.40;;
20142;SDS011;10509;46.476;7.134;2023-02-01T12:56:53;2.60;;;1.70;;
20142;SDS011;10509;46.476;7.134;2023-02-01T12:59:26;1.80;;;1.40;;
20142;SDS011;10509;46.476;7.134;2023-02-01T13:01:54;2.33;;;1.40;;
20142;SDS011;10509;46.476;7.134;2023-02-01T13:04:25;1.27;;;1.10;;
20142;SDS011;10509;46.476;7.134;2023-02-01T13:09:58;3.53;;;1.77;;
20142;SDS011;10509;46.476;7.134;2023-02-01T13:12:40;2.50;;;1.50;;
20142;SDS011;10509;46.476;7.134;2023-02-01T13:15:12;1.57;;;1.10;;
20142;SDS011;10509;46.476;7.134;2023-02-01T13:17:39;2.40;;;1.10;;
20142;SDS011;10509;46.476;7.134;2023-02-01T13:22:34;4.00;;;1.30;;
20142;SDS011;10509;46.476;7.134;2023-02-01T13:25:15;2.07;;;1.30;;
20142;SDS011;10509;46.476;7.134;2023-02-01T13:27:43;1.10;;;1.00;;
20142;SDS011;10509;46.476;7.134;2023-02-01T13:35:26;2.40;;;1.00;;
20142;SDS011;10509;46.476;7.134;2023-02-01T13:42:51;2.00;;;0.90;;
20142;SDS011;10509;46.476;7.134;2023-02-01T13:45:22;1.47;;;0.97;;
20142;SDS011;10509;46.476;7.134;2023-02-01T13:47:50;1.97;;;0.80;;
20142;SDS011;10509;46.476;7.134;2023-02-01T13:52:44;1.10;;;0.90;;
20142;SDS011;10509;46.476;7.134;2023-02-01T13:57:41;1.00;;;0.70;;
20142;SDS011;10509;46.476;7.134;2023-02-01T14:05:04;1.10;;;0.70;;
20142;SDS011;10509;46.476;7.134;2023-02-01T14:07:30;0.90;;;0.60;;
20142;SDS011;10509;46.476;7.134;2023-02-01T14:09:56;1.03;;;0.77;;
20142;SDS011;10509;46.476;7.134;2023-02-01T14:15:20;0.70;;;0.53;;
20142;SDS011;10509;46.476;7.134;2023-02-01T14:17:47;1.93;;;0.57;;
20142;SDS011;10509;46.476;7.134;2023-02-01T14:23:02;0.80;;;0.50;;
20142;SDS011;10509;46.476;7.134;2023-02-01T14:25:32;1.07;;;0.50;;
20142;SDS011;10509;46.476;7.134;2023-02-01T14:27:58;0.73;;;0.50;;
20142;SDS011;10509;46.476;7.134;2023-02-01T14:30:25;1.87;;;1.20;;
20142;SDS011;10509;46.476;7.134;2023-02-01T14:32:51;2.17;;;0.80;;
20142;SDS011;10509;46.476;7.134;2023-02-01T14:35:21;1.53;;;0.70;;
20142;SDS011;10509;46.476;7.134;2023-02-01T14:37:51;2.10;;;1.40;;
20142;SDS011;10509;46.476;7.134;2023-02-01T14:40:25;2.17;;;1.50;;
20142;SDS011;10509;46.476;7.134;2023-02-01T14:42:52;1.60;;;0.90;;
20142;SDS011;10509;46.476;7.134;2023-02-01T15:00:47;0.50;;;0.50;;
20142;SDS011;10509;46.476;7.134;2023-02-01T15:06:00;0.40;;;0.40;;
20142;SDS011;10509;46.476;7.134;2023-02-01T15:08:29;0.47;;;0.47;;
20142;SDS011;10509;46.476;7.134;2023-02-01T15:10:56;0.70;;;0.40;;
20142;SDS011;10509;46.476;7.134;2023-02-01T15:13:27;0.90;;;0.40;;
20142;SDS011;10509;46.476;7.134;2023-02-01T15:16:00;1.13;;;0.50;;
20142;SDS011;10509;46.476;7.134;2023-02-01T15:18:26;0.50;;;0.50;;
20142;SDS011;10509;46.476;7.134;2023-02-01T15:20:59;2.20;;;0.60;;
20142;SDS011;10509;46.476;7.134;2023-02-01T15:23:25;1.17;;;0.70;;
20142;SDS011;10509;46.476;7.134;2023-02-01T15:25:52;1.37;;;0.60;;
20142;SDS011;10509;46.476;7.134;2023-02-01T15:28:19;2.07;;;0.80;;
20142;SDS011;10509;46.476;7.134;2023-02-01T15:33:55;0.67;;;0.60;;
20142;SDS011;10509;46.476;7.134;2023-02-01T15:36:21;4.57;;;1.23;;
20142;SDS011;10509;46.476;7.134;2023-02-01T15:39:11;1.13;;;0.70;;
20142;SDS011;10509;46.476;7.134;2023-02-01T15:41:36;2.00;;;0.70;;
20142;SDS011;10509;46.476;7.134;2023-02-01T15:44:03;3.90;;;0.83;;
20142;SDS011;10509;46.476;7.134;2023-02-01T15:46:36;1.13;;;0.80;;
20142;SDS011;10509;46.476;7.134;2023-02-01T15:49:04;0.90;;;0.70;;
20142;SDS011;10509;46.476;7.134;2023-02-01T15:51:31;1.33;;;0.70;;
20142;SDS011;10509;46.476;7.134;2023-02-01T15:56:27;0.57;;;0.57;;
20142;SDS011;10509;46.476;7.134;2023-02-01T15:58:57;1.40;;;0.70;;
20142;SDS011;10509;46.476;7.134;2023-02-01T16:01:23;0.83;;;0.67;;
20142;SDS011;10509;46.476;7.134;2023-02-01T16:04:00;1.10;;;0.80;;
20142;SDS011;10509;46.476;7.134;2023-02-01T16:06:29;0.80;;;0.70;;
20142;SDS011;10509;46.476;7.134;2023-02-01T16:09:17;0.90;;;0.67;;
20142;SDS011;10509;46.476;7.134;2023-02-01T16:11:46;0.73;;;0.60;;
20142;SDS011;10509;46.476;7.134;2023-02-01T16:14:13;1.00;;;1.00;;
20142;SDS011;10509;46.476;7.134;2023-02-01T16:16:39;1.00;;;0.80;;
20142;SDS011;10509;46.476;7.134;2023-02-01T16:19:05;1.37;;;1.27;;
20142;SDS011;10509;46.476;7.134;2023-02-01T16:21:31;1.60;;;1.00;;
20142;SDS011;10509;46.476;7.134;2023-02-01T16:23:57;1.40;;;1.30;;
20142;SDS011;10509;46.476;7.134;2023-02-01T16:26:28;1.70;;;0.97;;
20142;SDS011;10509;46.476;7.134;2023-02-01T16:28:55;2.30;;;1.20;;
20142;SDS011;10509;46.476;7.134;2023-02-01T16:31:21;1.10;;;1.00;;
20142;SDS011;10509;46.476;7.134;2023-02-01T16:33:50;1.30;;;1.20;;
20142;SDS011;10509;46.476;7.134;2023-02-01T16:36:16;1.10;;;0.90;;
20142;SDS011;10509;46.476;7.134;2023-02-01T16:38:43;0.93;;;0.90;;
20142;SDS011;10509;46.476;7.134;2023-02-01T16:41:27;1.67;;;1.40;;
20142;SDS011;10509;46.476;7.134;2023-02-01T16:43:54;1.30;;;1.20;;
20142;SDS011;10509;46.476;7.134;2023-02-01T16:46:21;1.33;;;0.90;;
20142;SDS011;10509;46.476;7.134;2023-02-01T16:48:53;1.10;;;1.00;;
20142;SDS011;10509;46.476;7.134;2023-02-01T16:51:19;1.03;;;0.93;;
20142;SDS011;10509;46.476;7.134;2023-02-01T16:53:45;1.40;;;1.20;;
20142;SDS011;10509;46.476;7.134;2023-02-01T16:58:38;1.60;;;1.20;;
20142;SDS011;10509;46.476;7.134;2023-02-01T17:01:06;1.53;;;1.40;;
20142;SDS011;10509;46.476;7.134;2023-02-01T17:03:32;1.90;;;1.80;;
20142;SDS011;10509;46.476;7.134;2023-02-01T17:05:58;1.57;;;1.47;;
20142;SDS011;10509;46.476;7.134;2023-02-01T17:08:29;1.37;;;1.17;;
20142;SDS011;10509;46.476;7.134;2023-02-01T17:10:55;1.20;;;1.10;;
20142;SDS011;10509;46.476;7.134;2023-02-01T17:13:21;1.57;;;1.47;;
20142;SDS011;10509;46.476;7.134;2023-02-01T17:16:00;1.77;;;1.57;;
20142;SDS011;10509;46.476;7.134;2023-02-01T17:18:28;2.80;;;2.60;;
20142;SDS011;10509;46.476;7.134;2023-02-01T17:20:58;3.00;;;2.70;;
20142;SDS011;10509;46.476;7.134;2023-02-01T17:23:24;2.97;;;2.77;;
20142;SDS011;10509;46.476;7.134;2023-02-01T17:25:50;7.03;;;6.43;;
20142;SDS011;10509;46.476;7.134;2023-02-01T17:28:17;3.37;;;3.07;;
20142;SDS011;10509;46.476;7.134;2023-02-01T17:30:43;4.67;;;4.27;;
20142;SDS011;10509;46.476;7.134;2023-02-01T17:33:11;2.57;;;2.37;;
20142;SDS011;10509;46.476;7.134;2023-02-01T17:35:42;2.43;;;2.23;;
20142;SDS011;10509;46.476;7.134;2023-02-01T17:38:10;2.60;;;2.40;;